Terminal Aerodrome Forecast
Issued by NWS

Home | Current Version | Previous Version | Graphics & Text | Print | Product List | Glossary On
Versions: 1 2 3 4 5 6 7 8 9 10 11 12 13 14 15 16 17 18 19 20 21 22 23 24
000
FTUS43 KMPX 301100
TAFRWF
TAF
KRWF 301139Z 3012/0112 09012KT P6SM OVC007
     FM301400 11012G18KT P6SM OVC010
     FM301600 13014G21KT P6SM BKN020
     FM302100 14015G23KT P6SM VCTS SCT015CB OVC030
      TEMPO 3022/0101 2SM SHRA BR OVC012
     FM010400 15012KT 6SM BR OVC015
     FM010700 15009KT 2SM BR OVC008=

USA.gov is the U.S. government's official web portal to all federal, state and local government web resources and services.